createdAt,value
2019-03-25T00:01:22.163Z,100721.80
2019-03-25T00:03:54.887Z,100718.55
2019-03-25T00:06:27.565Z,100720.90
2019-03-25T00:09:05.300Z,100715.32
2019-03-25T00:11:35.686Z,100706.08
2019-03-25T00:14:08.369Z,100710.31
2019-03-25T00:16:40.954Z,100698.55
2019-03-25T00:19:13.077Z,100698.89
2019-03-25T00:21:45.799Z,100694.27
2019-03-25T00:24:18.365Z,100687.39
2019-03-25T00:26:50.535Z,100685.94
2019-03-25T00:29:23.113Z,100681.48
2019-03-25T00:31:55.691Z,100674.91
2019-03-25T00:34:28.170Z,100683.41
2019-03-25T00:37:00.698Z,100670.57
2019-03-25T00:39:33.226Z,100669.34
2019-03-25T00:42:05.799Z,100665.13
2019-03-25T00:44:38.376Z,100664.11
2019-03-25T00:47:11.611Z,100655.91
2019-03-25T00:49:44.044Z,100656.73
2019-03-25T00:52:16.619Z,100656.58
2019-03-25T00:54:50.403Z,100655.28
2019-03-25T00:57:23.105Z,100651.45
2019-03-25T00:59:55.678Z,100650.09
2019-03-25T01:02:28.249Z,100646.28
2019-03-25T01:05:01.026Z,100648.30
2019-03-25T01:07:33.714Z,100652.51
2019-03-25T01:10:09.150Z,100646.33
2019-03-25T01:12:41.728Z,100641.14
2019-03-25T01:15:14.309Z,100638.39
2019-03-25T01:17:46.467Z,100638.65
2019-03-25T01:20:18.966Z,100633.20
2019-03-25T01:22:51.526Z,100638.20
2019-03-25T01:25:24.006Z,100618.17
2019-03-25T01:27:56.577Z,100618.67
2019-03-25T01:30:29.159Z,100613.64
2019-03-25T01:33:01.731Z,100611.16
2019-03-25T01:35:34.316Z,100610.08
2019-03-25T01:38:06.890Z,100606.70
2019-03-25T01:40:39.463Z,100600.41
2019-03-25T01:43:12.037Z,100602.50
2019-03-25T01:45:45.535Z,100594.34
2019-03-25T01:48:18.119Z,100601.22
2019-03-25T01:50:50.693Z,100591.04
2019-03-25T01:53:23.376Z,100591.53
2019-03-25T01:55:55.838Z,100579.06
2019-03-25T01:58:28.421Z,100567.69
2019-03-25T02:01:01.001Z,100559.66
2019-03-25T02:03:33.579Z,100555.14
2019-03-25T02:06:06.158Z,100551.09
2019-03-25T02:08:38.735Z,100550.76
2019-03-25T02:11:11.415Z,100549.16
2019-03-25T02:13:43.991Z,100552.55
2019-03-25T02:16:16.553Z,100542.86
2019-03-25T02:18:49.142Z,100541.30
2019-03-25T02:21:22.023Z,100536.22
2019-03-25T02:23:54.602Z,100535.23
2019-03-25T02:26:27.181Z,100536.13
2019-03-25T02:28:59.762Z,100526.50
2019-03-25T02:31:32.228Z,100525.05
2019-03-25T02:34:04.801Z,100519.31
2019-03-25T02:36:36.938Z,100516.50
2019-03-25T02:39:09.446Z,100513.52
2019-03-25T02:41:42.026Z,100516.18
2019-03-25T02:44:14.592Z,100504.21
2019-03-25T02:46:47.189Z,100506.63
2019-03-25T02:49:21.305Z,100495.09
2019-03-25T02:51:53.873Z,100490.32
2019-03-25T02:54:26.452Z,100484.66
2019-03-25T02:56:58.913Z,100484.66
2019-03-25T02:59:31.494Z,100477.95
2019-03-25T03:02:04.067Z,100479.02
2019-03-25T03:04:36.646Z,100472.39
2019-03-25T03:07:10.151Z,100477.40
2019-03-25T03:09:42.797Z,100479.98
2019-03-25T03:12:15.295Z,100466.39
2019-03-25T03:14:47.880Z,100467.69
2019-03-25T03:17:20.472Z,100460.03
2019-03-25T03:19:55.240Z,100449.75
2019-03-25T03:22:27.309Z,100446.53
2019-03-25T03:24:59.855Z,100437.48
2019-03-25T03:27:32.414Z,100428.44
2019-03-25T03:30:06.149Z,100430.86
2019-03-25T03:32:38.688Z,100430.59
2019-03-25T03:35:11.376Z,100428.11
2019-03-25T03:37:43.938Z,100426.26
2019-03-25T03:40:16.614Z,100425.36
2019-03-25T03:42:49.198Z,100415.59
2019-03-25T03:45:21.761Z,100421.09
2019-03-25T03:47:54.350Z,100415.09
2019-03-25T03:50:28.467Z,100411.15
2019-03-25T03:53:01.037Z,100409.75
2019-03-25T03:55:34.118Z,100410.35
2019-03-25T03:58:06.688Z,100401.30
2019-03-25T04:00:39.272Z,100394.02
2019-03-25T04:03:12.771Z,100386.91
2019-03-25T04:05:44.907Z,100392.16
2019-03-25T04:08:17.419Z,100376.75
2019-03-25T04:10:49.989Z,100376.75
2019-03-25T04:13:22.565Z,100380.46
2019-03-25T04:15:55.152Z,100378.91
2019-03-25T04:18:27.822Z,100379.00
2019-03-25T04:21:00.411Z,100381.59
2019-03-25T04:23:32.880Z,100388.63
2019-03-25T04:26:05.460Z,100377.72
2019-03-25T04:28:37.991Z,100377.22
2019-03-25T04:31:10.713Z,100382.23
2019-03-25T04:33:43.295Z,100380.60
2019-03-25T04:36:15.862Z,100375.59
2019-03-25T04:38:48.030Z,100367.22
2019-03-25T04:41:20.598Z,100361.31
2019-03-25T04:43:54.548Z,100358.80
2019-03-25T04:46:26.888Z,100361.08
2019-03-25T04:48:59.466Z,100353.48
2019-03-25T04:51:32.042Z,100349.91
2019-03-25T04:54:04.613Z,100351.36
2019-03-25T04:56:39.937Z,100342.97
2019-03-25T04:59:11.409Z,100342.80
2019-03-25T05:01:43.898Z,100351.67
2019-03-25T05:04:16.451Z,100347.27
2019-03-25T05:06:48.569Z,100341.63
2019-03-25T05:09:22.231Z,100338.33
2019-03-25T05:11:54.697Z,100336.61
2019-03-25T05:14:27.285Z,100321.48
2019-03-25T05:16:59.799Z,100325.39
2019-03-25T05:19:32.336Z,100317.19
2019-03-25T05:22:04.905Z,100320.44
2019-03-25T05:24:37.475Z,100309.63
2019-03-25T05:27:10.063Z,100306.45
2019-03-25T05:29:42.639Z,100302.66
2019-03-25T05:32:15.101Z,100281.47
2019-03-25T05:34:47.678Z,100288.86
2019-03-25T05:37:20.268Z,100278.83
2019-03-25T05:39:54.060Z,100284.08
2019-03-25T05:42:26.539Z,100286.65
2019-03-25T05:44:59.118Z,100281.39
2019-03-25T05:47:31.906Z,100286.80
2019-03-25T05:50:05.185Z,100277.69
2019-03-25T05:52:37.769Z,100275.36
2019-03-25T05:55:10.454Z,100269.91
2019-03-25T05:57:43.025Z,100262.57
2019-03-25T06:00:17.040Z,100268.20
2019-03-25T06:02:49.696Z,100261.88
2019-03-25T06:05:22.301Z,100255.01
2019-03-25T06:07:54.873Z,100248.00
2019-03-25T06:10:27.456Z,100251.78
2019-03-25T06:13:00.021Z,100243.88
2019-03-25T06:15:32.604Z,100244.98
2019-03-25T06:18:05.185Z,100244.70
2019-03-25T06:20:37.747Z,100237.61
2019-03-25T06:23:11.352Z,100234.55
2019-03-25T06:25:43.995Z,100225.86
2019-03-25T06:28:16.571Z,100230.27
2019-03-25T06:30:49.190Z,100227.58
2019-03-25T06:33:21.761Z,100241.17
2019-03-25T06:35:54.346Z,100235.16
2019-03-25T06:38:26.914Z,100231.20
2019-03-25T06:40:59.501Z,100219.86
2019-03-25T06:43:32.073Z,100217.89
2019-03-25T06:46:04.644Z,100212.40
2019-03-25T06:48:38.160Z,100210.25
2019-03-25T06:51:10.834Z,100211.55
2019-03-25T06:53:43.007Z,100211.17
2019-03-25T06:56:15.566Z,100203.08
2019-03-25T06:58:48.152Z,100208.50
2019-03-25T07:01:20.613Z,100206.69
2019-03-25T07:03:53.194Z,100204.38
2019-03-25T07:06:25.539Z,100200.78
2019-03-25T07:08:58.149Z,100204.64
2019-03-25T07:11:30.730Z,100202.52
2019-03-25T07:14:03.618Z,100196.95
2019-03-25T07:16:36.189Z,100206.87
2019-03-25T07:19:08.864Z,100213.15
2019-03-25T07:21:41.471Z,100214.67
2019-03-25T07:24:14.123Z,100218.09
2019-03-25T07:26:46.698Z,100216.08
2019-03-25T07:29:21.118Z,100212.18
2019-03-25T07:31:53.696Z,100205.72
2019-03-25T07:34:26.265Z,100210.88
2019-03-25T07:36:58.846Z,100204.31
2019-03-25T07:39:31.269Z,100206.34
2019-03-25T07:42:03.791Z,100197.65
2019-03-25T07:44:36.376Z,100200.66
2019-03-25T07:47:08.952Z,100201.24
2019-03-25T07:49:41.521Z,100191.31
2019-03-25T07:52:14.004Z,100188.52
2019-03-25T07:54:46.577Z,100188.66
2019-03-25T07:57:19.174Z,100183.84
2019-03-25T07:59:51.725Z,100183.22
2019-03-25T08:02:24.416Z,100188.53
2019-03-25T08:04:57.102Z,100181.03
2019-03-25T08:07:29.673Z,100179.00
2019-03-25T08:10:02.683Z,100177.82
2019-03-25T08:12:35.436Z,100181.95
2019-03-25T08:15:09.764Z,100176.55
2019-03-25T08:17:42.332Z,100168.09
2019-03-25T08:20:16.226Z,100169.61
2019-03-25T08:22:48.704Z,100166.67
2019-03-25T08:25:21.289Z,100159.56
2019-03-25T08:28:00.041Z,100160.45
2019-03-25T08:30:27.700Z,100156.05
2019-03-25T08:33:00.247Z,100156.96
2019-03-25T08:35:33.944Z,100157.22
2019-03-25T08:38:06.167Z,100151.61
2019-03-25T08:40:38.794Z,100147.05
2019-03-25T08:43:11.374Z,100138.55
2019-03-25T08:45:43.949Z,100146.38
2019-03-25T08:48:16.399Z,100144.13
2019-03-25T08:50:48.999Z,100142.95
2019-03-25T08:53:21.567Z,100149.39
2019-03-25T08:55:54.159Z,100143.30
2019-03-25T08:58:26.733Z,100142.63
2019-03-25T09:00:59.313Z,100142.27
2019-03-25T09:03:31.874Z,100133.20
2019-03-25T09:06:04.047Z,100146.27
2019-03-25T09:08:36.527Z,100139.42
2019-03-25T09:11:09.162Z,100144.91
2019-03-25T09:13:41.681Z,100147.23
2019-03-25T09:16:14.308Z,100136.22
2019-03-25T09:18:47.243Z,100138.98
2019-03-25T09:21:19.823Z,100130.58
2019-03-25T09:23:52.290Z,100128.80
2019-03-25T09:26:24.920Z,100127.03
2019-03-25T09:28:57.449Z,100128.14
2019-03-25T09:31:36.848Z,100108.83
2019-03-25T09:34:04.541Z,100118.68
2019-03-25T09:36:37.125Z,100104.81
2019-03-25T09:39:10.109Z,100127.13
2019-03-25T09:41:42.690Z,100108.33
2019-03-25T09:44:15.259Z,100111.45
2019-03-25T09:46:47.943Z,100112.02
2019-03-25T09:49:20.523Z,100116.23
2019-03-25T09:51:54.219Z,100113.53
2019-03-25T09:54:26.819Z,100114.64
2019-03-25T09:56:59.378Z,100117.98
2019-03-25T09:59:31.955Z,100112.84
2019-03-25T10:02:04.524Z,100113.88
2019-03-25T10:04:38.134Z,100122.64
2019-03-25T10:07:15.277Z,100109.48
2019-03-25T10:09:47.886Z,100107.05
2019-03-25T10:12:20.469Z,100112.11
2019-03-25T10:14:52.604Z,100108.91
2019-03-25T10:17:25.217Z,100111.77
2019-03-25T10:19:58.865Z,100106.62
2019-03-25T10:22:31.594Z,100103.39
2019-03-25T10:25:04.690Z,100124.41
2019-03-25T10:27:37.733Z,100114.15
2019-03-25T10:30:16.176Z,100107.48
2019-03-25T10:32:48.756Z,100093.88
2019-03-25T10:35:22.364Z,100095.89
2019-03-25T10:37:54.942Z,100102.25
2019-03-25T10:40:27.507Z,100101.29
2019-03-25T10:43:00.498Z,100098.28
2019-03-25T10:45:33.071Z,100112.05
2019-03-25T10:48:05.651Z,100101.95
2019-03-25T10:50:38.231Z,100097.42
2019-03-25T10:53:10.879Z,100105.55
2019-03-25T10:55:43.393Z,100097.20
2019-03-25T10:58:15.557Z,100103.83
2019-03-25T11:00:48.644Z,100113.52
2019-03-25T11:03:21.213Z,100114.02
2019-03-25T11:05:53.797Z,100105.63
2019-03-25T11:08:26.379Z,100119.00
2019-03-25T11:10:58.945Z,100115.05
2019-03-25T11:13:31.522Z,100121.02
2019-03-25T11:16:04.408Z,100112.42
2019-03-25T11:18:38.218Z,100124.28
2019-03-25T11:21:10.795Z,100122.16
2019-03-25T11:23:43.370Z,100131.23
2019-03-25T11:26:15.940Z,100135.50
2019-03-25T11:28:48.518Z,100141.84
2019-03-25T11:31:20.985Z,100140.16
2019-03-25T11:33:55.105Z,100155.83
2019-03-25T11:36:27.733Z,100161.58
2019-03-25T11:38:59.890Z,100162.06
2019-03-25T11:41:32.434Z,100164.30
2019-03-25T11:44:05.413Z,100156.45
2019-03-25T11:46:37.527Z,100162.09
2019-03-25T11:49:10.049Z,100166.67
2019-03-25T11:51:42.524Z,100166.80
2019-03-25T11:54:15.112Z,100168.20
2019-03-25T11:56:47.681Z,100173.30
2019-03-25T11:59:20.266Z,100179.84
2019-03-25T12:01:52.840Z,100187.82
2019-03-25T12:04:25.407Z,100186.73
2019-03-25T12:06:58.506Z,100187.69
2019-03-25T12:09:31.085Z,100189.49
2019-03-25T12:12:03.551Z,100196.13
2019-03-25T12:14:36.129Z,100198.66
2019-03-25T12:17:08.709Z,100206.23
2019-03-25T12:19:41.289Z,100199.50
2019-03-25T12:22:14.781Z,100201.98
2019-03-25T12:24:47.663Z,100196.63
2019-03-25T12:27:20.582Z,100200.56
2019-03-25T12:29:53.337Z,100193.73
2019-03-25T12:32:25.915Z,100197.91
2019-03-25T12:34:58.492Z,100201.66
2019-03-25T12:37:32.493Z,100199.29
2019-03-25T12:40:07.882Z,100197.88
2019-03-25T12:42:40.926Z,100201.80
2019-03-25T12:45:13.791Z,100205.97
2019-03-25T12:47:45.929Z,100206.97
2019-03-25T12:50:18.554Z,100206.02
2019-03-25T12:52:51.133Z,100208.91
2019-03-25T12:55:23.634Z,100200.59
2019-03-25T12:57:55.762Z,100214.17
2019-03-25T13:00:40.842Z,100213.58
2019-03-25T13:03:13.310Z,100210.62
2019-03-25T13:05:45.887Z,100211.00
2019-03-25T13:08:18.473Z,100220.28
2019-03-25T13:10:52.577Z,100223.66
2019-03-25T13:13:25.157Z,100226.27
2019-03-25T13:15:57.733Z,100228.12
2019-03-25T13:18:30.316Z,100231.57
2019-03-25T13:21:02.883Z,100228.34
2019-03-25T13:23:35.368Z,100225.19
2019-03-25T13:26:07.540Z,100231.42
2019-03-25T13:28:39.998Z,100232.91
2019-03-25T13:31:12.148Z,100234.55
2019-03-25T13:33:44.678Z,100239.09
2019-03-25T13:36:17.229Z,100235.70
2019-03-25T13:38:50.829Z,100241.89
2019-03-25T13:41:23.407Z,100245.78
2019-03-25T13:43:55.987Z,100243.55
2019-03-25T13:46:28.623Z,100246.39
2019-03-25T13:49:01.137Z,100240.70
2019-03-25T13:51:33.702Z,100251.72
2019-03-25T13:54:07.088Z,100249.77
2019-03-25T13:56:39.794Z,100256.10
2019-03-25T13:59:12.359Z,100260.80
2019-03-25T14:01:44.953Z,100257.23
2019-03-25T14:04:17.409Z,100265.69
2019-03-25T14:06:50.200Z,100259.16
2019-03-25T14:09:22.772Z,100268.20
2019-03-25T14:11:56.028Z,100272.02
2019-03-25T14:14:28.168Z,100276.06
2019-03-25T14:17:00.811Z,100260.18
2019-03-25T14:19:33.394Z,100263.30
2019-03-25T14:22:05.968Z,100266.48
2019-03-25T14:24:38.535Z,100263.70
2019-03-25T14:27:10.658Z,100265.10
2019-03-25T14:29:43.177Z,100273.84
2019-03-25T14:32:15.531Z,100275.41
2019-03-25T14:34:48.126Z,100281.37
2019-03-25T14:37:20.758Z,100279.08
2019-03-25T14:39:53.388Z,100276.49
2019-03-25T14:42:25.966Z,100277.47
2019-03-25T14:44:58.537Z,100274.97
2019-03-25T14:47:31.009Z,100278.77
2019-03-25T14:50:03.591Z,100277.37
2019-03-25T14:52:36.178Z,100275.25
2019-03-25T14:55:09.354Z,100272.50
2019-03-25T14:57:41.833Z,100281.37
2019-03-25T15:00:24.712Z,100275.76
2019-03-25T15:02:49.350Z,100276.34
2019-03-25T15:05:21.910Z,100295.91
2019-03-25T15:07:54.390Z,100306.12
2019-03-25T15:10:29.783Z,100316.78
2019-03-25T15:13:02.461Z,100325.26
2019-03-25T15:15:34.994Z,100324.47
2019-03-25T15:18:15.229Z,100325.14
2019-03-25T15:20:41.586Z,100333.73
2019-03-25T15:23:14.155Z,100322.91
2019-03-25T15:25:46.835Z,100311.80
2019-03-25T15:28:19.823Z,100312.03
2019-03-25T15:30:52.398Z,100330.20
2019-03-25T15:33:24.765Z,100327.31
2019-03-25T15:35:57.341Z,100322.63
2019-03-25T15:38:29.715Z,100332.14
2019-03-25T15:41:02.294Z,100325.75
2019-03-25T15:43:34.876Z,100342.31
2019-03-25T15:46:07.451Z,100327.25
2019-03-25T15:48:40.076Z,100335.28
2019-03-25T15:51:13.837Z,100333.88
2019-03-25T15:53:46.401Z,100340.29
2019-03-25T15:56:18.978Z,100342.05
2019-03-25T15:58:51.559Z,100343.84
2019-03-25T16:01:25.053Z,100349.37
2019-03-25T16:03:57.627Z,100353.84
2019-03-25T16:06:30.208Z,100354.09
2019-03-25T16:09:02.791Z,100358.48
2019-03-25T16:11:35.678Z,100364.47
2019-03-25T16:14:08.138Z,100367.33
2019-03-25T16:16:40.726Z,100376.92
2019-03-25T16:19:13.301Z,100376.80
2019-03-25T16:21:45.885Z,100383.87
2019-03-25T16:24:18.462Z,100386.27
2019-03-25T16:26:51.035Z,100391.81
2019-03-25T16:29:23.598Z,100390.31
2019-03-25T16:31:56.187Z,100396.70
2019-03-25T16:34:28.772Z,100397.36
2019-03-25T16:37:02.777Z,100391.27
2019-03-25T16:39:35.455Z,100395.94
2019-03-25T16:42:08.032Z,100404.39
2019-03-25T16:44:40.595Z,100402.85
2019-03-25T16:47:13.177Z,100393.14
2019-03-25T16:49:45.556Z,100405.28
2019-03-25T16:52:18.126Z,100415.03
2019-03-25T16:54:50.598Z,100421.09
2019-03-25T16:57:23.170Z,100423.81
2019-03-25T16:59:57.288Z,100431.31
2019-03-25T17:02:29.865Z,100437.33
2019-03-25T17:05:02.347Z,100445.48
2019-03-25T17:07:35.220Z,100446.78
2019-03-25T17:10:09.342Z,100456.37
2019-03-25T17:12:41.503Z,100455.96
2019-03-25T17:15:14.689Z,100460.27
2019-03-25T17:17:47.971Z,100468.95
2019-03-25T17:20:20.476Z,100469.23
2019-03-25T17:22:53.048Z,100471.02
2019-03-25T17:25:25.616Z,100480.88
2019-03-25T17:27:58.198Z,100491.28
2019-03-25T17:30:31.686Z,100486.81
2019-03-25T17:33:04.276Z,100491.61
2019-03-25T17:35:36.742Z,100504.73
2019-03-25T17:38:09.383Z,100503.38
2019-03-25T17:40:41.890Z,100516.60
2019-03-25T17:43:14.473Z,100519.56
2019-03-25T17:45:46.906Z,100521.87
2019-03-25T17:48:19.530Z,100529.81
2019-03-25T17:50:52.962Z,100535.82
2019-03-25T17:53:25.323Z,100538.63
2019-03-25T17:55:57.980Z,100538.06
2019-03-25T17:58:30.553Z,100541.96
2019-03-25T18:01:06.714Z,100541.23
2019-03-25T18:03:38.864Z,100549.03
2019-03-25T18:06:11.459Z,100556.83
2019-03-25T18:08:44.030Z,100557.64
2019-03-25T18:11:16.616Z,100561.05
2019-03-25T18:13:49.181Z,100574.53
2019-03-25T18:16:21.766Z,100574.81
2019-03-25T18:18:54.441Z,100581.80
2019-03-25T18:21:27.179Z,100589.59
2019-03-25T18:24:01.734Z,100588.70
2019-03-25T18:26:37.800Z,100607.62
2019-03-25T18:29:10.376Z,100606.89
2019-03-25T18:31:43.985Z,100611.65
2019-03-25T18:34:16.660Z,100618.50
2019-03-25T18:36:51.179Z,100616.04
2019-03-25T18:39:23.760Z,100626.16
2019-03-25T18:41:56.384Z,100625.31
2019-03-25T18:44:29.013Z,100630.20
2019-03-25T18:47:01.613Z,100624.88
2019-03-25T18:49:34.172Z,100636.17
2019-03-25T18:52:06.754Z,100635.31
2019-03-25T18:54:40.751Z,100639.52
2019-03-25T18:57:13.214Z,100648.92
2019-03-25T18:59:47.655Z,100659.59
2019-03-25T19:02:21.642Z,100650.92
2019-03-25T19:04:56.826Z,100660.28
2019-03-25T19:07:29.263Z,100668.30
2019-03-25T19:10:03.081Z,100676.89
2019-03-25T19:12:35.996Z,100681.34
2019-03-25T19:15:09.258Z,100678.73
2019-03-25T19:17:41.832Z,100684.34
2019-03-25T19:20:14.415Z,100691.06
2019-03-25T19:22:46.880Z,100691.81
2019-03-25T19:25:19.458Z,100694.27
2019-03-25T19:27:52.035Z,100702.07
2019-03-25T19:30:24.657Z,100704.80
2019-03-25T19:32:56.731Z,100709.45
2019-03-25T19:35:30.146Z,100711.83
2019-03-25T19:38:02.819Z,100721.93
2019-03-25T19:40:34.961Z,100728.72
2019-03-25T19:43:07.196Z,100735.06
2019-03-25T19:45:40.091Z,100745.86
2019-03-25T19:48:12.647Z,100746.36
2019-03-25T19:50:45.249Z,100752.30
2019-03-25T19:53:19.651Z,100758.84
2019-03-25T19:55:52.435Z,100756.70
2019-03-25T19:58:28.456Z,100760.86
2019-03-25T20:01:02.707Z,100767.64
2019-03-25T20:03:35.292Z,100770.34
2019-03-25T20:06:09.034Z,100776.88
2019-03-25T20:08:45.257Z,100785.90
2019-03-25T20:11:18.483Z,100783.80
2019-03-25T20:13:51.022Z,100795.33
2019-03-25T20:16:23.602Z,100800.62
2019-03-25T20:18:56.133Z,100802.87
2019-03-25T20:21:28.805Z,100807.41
2019-03-25T20:24:02.444Z,100812.72
2019-03-25T20:26:36.537Z,100821.01
2019-03-25T20:29:09.916Z,100826.70
2019-03-25T20:31:45.814Z,100835.09
2019-03-25T20:34:20.041Z,100834.95
2019-03-25T20:36:55.594Z,100835.09
2019-03-25T20:39:31.629Z,100838.65
2019-03-25T20:42:06.733Z,100838.75
2019-03-25T20:44:40.511Z,100839.89
2019-03-25T20:47:16.381Z,100834.14
2019-03-25T20:49:52.867Z,100839.98
2019-03-25T20:52:25.473Z,100846.81
2019-03-25T20:54:59.782Z,100843.11
2019-03-25T20:57:34.684Z,100851.98
2019-03-25T21:00:12.624Z,100864.86
2019-03-25T21:02:48.685Z,100858.22
2019-03-25T21:05:24.155Z,100858.22
2019-03-25T21:07:58.825Z,100866.84
2019-03-25T21:10:41.072Z,100867.23
2019-03-25T21:13:17.932Z,100879.81
2019-03-25T21:15:53.581Z,100874.86
2019-03-25T21:18:27.993Z,100877.52
2019-03-25T21:21:02.971Z,100880.95
2019-03-25T21:23:36.673Z,100877.36
2019-03-25T21:26:12.249Z,100892.47
2019-03-25T21:28:52.573Z,100899.77
2019-03-25T21:31:27.249Z,100897.56
2019-03-25T21:34:00.842Z,100906.19
2019-03-25T21:36:33.569Z,100902.36
2019-03-25T21:39:08.528Z,100905.29
2019-03-25T21:41:41.556Z,100914.44
2019-03-25T21:44:17.177Z,100909.08
2019-03-25T21:46:52.970Z,100913.88
2019-03-25T21:49:25.778Z,100915.51
2019-03-25T21:51:58.227Z,100912.59
2019-03-25T21:54:30.961Z,100915.02
2019-03-25T21:57:03.711Z,100914.73
2019-03-25T21:59:36.291Z,100921.19
2019-03-25T22:02:16.425Z,100927.38
2019-03-25T22:04:52.269Z,100921.06
2019-03-25T22:07:25.778Z,100925.52
2019-03-25T22:10:00.072Z,100922.26
2019-03-25T22:12:33.188Z,100931.50
2019-03-25T22:15:09.438Z,100934.32
2019-03-25T22:17:43.010Z,100940.46
2019-03-25T22:20:18.156Z,100946.31
2019-03-25T22:22:51.678Z,100949.06
2019-03-25T22:25:24.289Z,100950.19
2019-03-25T22:27:57.047Z,100956.09
2019-03-25T22:30:33.424Z,100954.23
2019-03-25T22:33:07.332Z,100954.78
2019-03-25T22:35:40.426Z,100946.33
2019-03-25T22:38:15.334Z,100960.41
2019-03-25T22:40:49.183Z,100960.17
2019-03-25T22:43:21.848Z,100959.20
2019-03-25T22:45:56.954Z,100965.90
2019-03-25T22:48:31.318Z,100976.09
2019-03-25T22:51:04.951Z,100980.38
2019-03-25T22:53:38.169Z,100980.84
2019-03-25T22:56:10.843Z,100985.27
2019-03-25T22:58:43.417Z,100988.87
2019-03-25T23:01:16.193Z,100991.20
2019-03-25T23:03:48.883Z,100998.00
2019-03-25T23:06:21.345Z,101012.39
2019-03-25T23:08:53.931Z,101018.76
2019-03-25T23:11:26.406Z,101027.23
2019-03-25T23:13:58.977Z,101030.23
2019-03-25T23:16:31.656Z,101029.83
2019-03-25T23:19:04.242Z,101032.34
2019-03-25T23:21:37.441Z,101039.42
2019-03-25T23:24:10.208Z,101048.30
2019-03-25T23:26:42.354Z,101051.02
2019-03-25T23:29:14.960Z,101052.53
2019-03-25T23:31:47.533Z,101052.77
2019-03-25T23:34:19.711Z,101048.89
2019-03-25T23:36:52.384Z,101057.95
2019-03-25T23:39:25.268Z,101052.60
2019-03-25T23:41:58.144Z,101061.47
2019-03-25T23:44:30.722Z,101068.07
2019-03-25T23:47:03.297Z,101062.12
2019-03-25T23:49:36.291Z,101066.12
2019-03-25T23:52:08.961Z,101060.57
2019-03-25T23:54:41.749Z,101066.66
2019-03-25T23:57:14.534Z,101072.73
2019-03-25T23:59:47.316Z,101072.15
